Time;durP1;ratioP1;P1;durP2;ratioP2;P2;SDS_P1;SDS_P2;PMS_P1;PMS_P2;Temp;Humidity;BMP_temperature;BMP_pressure;BME280_temperature;BME280_humidity;BME280_pressure;Samples;Min_cycle;Max_cycle;Signal;HPM_P1;HPM_P2
2022/10/16 00:01:47;;;;;;;5.47;3.33;;;13.00;99.90;;;;;;5014768;28;20022;-68
2022/10/16 00:04:13;;;;;;;6.30;3.47;;;13.00;99.90;;;;;;5024805;28;20072;-68
2022/10/16 00:06:39;;;;;;;6.03;3.55;;;12.90;99.90;;;;;;5025318;28;20449;-69
2022/10/16 00:09:05;;;;;;;6.40;4.20;;;12.90;99.90;;;;;;5014276;28;20045;-68
2022/10/16 00:11:33;;;;;;;8.63;2.92;;;12.90;99.90;;;;;;5018162;28;20029;-69
2022/10/16 00:14:00;;;;;;;4.60;3.28;;;12.90;99.90;;;;;;5023092;28;20477;-69
2022/10/16 00:16:27;;;;;;;6.95;3.88;;;12.90;99.90;;;;;;5008592;28;20045;-68
2022/10/16 00:18:53;;;;;;;6.60;3.05;;;12.90;99.90;;;;;;5016499;28;20485;-68
2022/10/16 00:21:21;;;;;;;5.30;2.67;;;12.90;99.90;;;;;;5025227;28;20029;-69
2022/10/16 00:23:49;;;;;;;6.40;2.70;;;13.00;99.90;;;;;;5016558;28;20068;-69
2022/10/16 00:26:16;;;;;;;6.65;2.42;;;13.00;99.90;;;;;;5019297;28;20029;-69
2022/10/16 00:28:44;;;;;;;5.90;2.55;;;13.00;99.90;;;;;;5019730;28;20034;-69
2022/10/16 00:31:11;;;;;;;3.70;2.35;;;13.00;99.90;;;;;;5025548;28;20036;-68
2022/10/16 00:33:39;;;;;;;4.88;2.22;;;12.90;99.90;;;;;;5016729;28;20381;-68
2022/10/16 00:36:07;;;;;;;2.92;2.40;;;12.90;99.90;;;;;;5019413;28;20048;-68
2022/10/16 00:38:32;;;;;;;3.00;2.33;;;12.90;99.90;;;;;;5016757;28;20037;-68
2022/10/16 00:40:58;;;;;;;3.50;2.30;;;12.90;99.90;;;;;;5017440;28;20037;-68
2022/10/16 00:43:35;;;;;;;3.20;2.17;;;12.80;99.90;;;;;;5019039;28;20032;-68
2022/10/16 00:46:03;;;;;;;3.75;2.22;;;12.80;99.90;;;;;;5017514;28;20030;-68
2022/10/16 00:48:29;;;;;;;5.95;2.53;;;12.80;99.90;;;;;;5019281;28;20114;-68
2022/10/16 00:50:56;;;;;;;4.72;2.45;;;12.80;99.90;;;;;;5021777;28;20033;-68
2022/10/16 00:53:24;;;;;;;6.43;2.22;;;12.70;99.90;;;;;;5020354;28;20028;-68
2022/10/16 00:55:50;;;;;;;7.22;2.30;;;12.70;99.90;;;;;;5022739;28;20029;-68
2022/10/16 00:58:15;;;;;;;6.05;2.28;;;12.70;99.90;;;;;;5019646;28;20099;-68
2022/10/16 01:00:41;;;;;;;3.70;2.45;;;12.60;99.90;;;;;;5021518;28;20032;-68
2022/10/16 01:03:27;;;;;;;8.77;2.45;;;12.60;99.90;;;;;;5019955;28;20032;-68
2022/10/16 01:06:14;;;;;;;3.97;3.30;;;12.60;99.90;;;;;;5019238;28;20036;-68
2022/10/16 01:08:43;;;;;;;7.25;3.00;;;12.50;99.90;;;;;;5022127;28;20112;-68
2022/10/16 01:11:27;;;;;;;3.05;2.47;;;12.50;99.90;;;;;;5019174;28;20053;-68
2022/10/16 01:14:01;;;;;;;9.25;2.40;;;12.50;99.90;;;;;;5019027;28;20055;-68
2022/10/16 01:16:48;;;;;;;5.25;2.80;;;12.40;99.90;;;;;;5006745;28;20050;-68
2022/10/16 01:19:26;;;;;;;5.53;2.42;;;12.50;99.90;;;;;;5018726;28;20064;-68
2022/10/16 01:21:54;;;;;;;2.80;2.30;;;12.40;99.90;;;;;;5017627;28;20021;-68
2022/10/16 01:24:34;;;;;;;7.95;2.28;;;12.50;99.90;;;;;;5020368;28;20018;-67
2022/10/16 01:27:18;;;;;;;4.05;1.90;;;12.40;99.90;;;;;;5018089;28;20637;-67
2022/10/16 01:29:53;;;;;;;6.22;2.33;;;12.40;99.90;;;;;;5020617;28;20034;-68
2022/10/16 01:32:31;;;;;;;7.28;2.20;;;12.40;99.90;;;;;;5023834;28;20057;-68
2022/10/16 01:35:23;;;;;;;4.75;1.95;;;12.30;99.90;;;;;;5019459;28;20400;-67
2022/10/16 01:37:55;;;;;;;2.88;2.00;;;12.30;99.90;;;;;;5018546;28;20518;-68
2022/10/16 01:40:24;;;;;;;2.40;2.17;;;12.20;99.90;;;;;;5014633;28;20029;-68
2022/10/16 01:43:03;;;;;;;6.00;2.30;;;12.20;99.90;;;;;;5022082;28;20526;-68
2022/10/16 01:45:31;;;;;;;2.90;1.92;;;12.20;99.90;;;;;;5020383;28;20075;-68
2022/10/16 01:47:59;;;;;;;7.20;3.75;;;12.10;99.90;;;;;;5020412;28;20029;-68
2022/10/16 01:50:26;;;;;;;6.68;2.00;;;12.10;99.90;;;;;;5021196;28;20075;-69
2022/10/16 01:52:55;;;;;;;2.75;2.03;;;12.10;99.90;;;;;;5016634;28;20026;-69
2022/10/16 01:55:33;;;;;;;4.60;2.00;;;12.10;99.90;;;;;;5018738;28;20029;-68
2022/10/16 01:58:01;;;;;;;2.53;1.83;;;11.90;99.90;;;;;;5018167;28;20029;-69
2022/10/16 02:00:27;;;;;;;3.33;1.83;;;12.00;99.90;;;;;;5025768;28;20017;-69
2022/10/16 02:02:55;;;;;;;3.22;2.00;;;11.90;99.90;;;;;;5027114;28;20381;-68
2022/10/16 02:05:26;;;;;;;3.58;2.17;;;11.80;99.90;;;;;;5027253;28;20481;-69
2022/10/16 02:07:52;;;;;;;3.20;2.00;;;11.80;99.90;;;;;;5028097;28;20239;-68
2022/10/16 02:10:18;;;;;;;3.72;2.10;;;11.80;99.90;;;;;;5019481;28;20029;-68
2022/10/16 02:13:12;;;;;;;7.40;2.63;;;11.70;99.90;;;;;;5021824;28;20053;-68
2022/10/16 02:15:38;;;;;;;7.30;2.60;;;11.60;99.90;;;;;;4976495;28;20069;-69
2022/10/16 02:18:07;;;;;;;2.83;2.22;;;11.70;99.90;;;;;;5019719;28;20395;-68
2022/10/16 02:20:42;;;;;;;5.00;2.05;;;11.70;99.90;;;;;;5019722;28;20117;-68
2022/10/16 02:23:17;;;;;;;5.80;2.90;;;11.60;99.90;;;;;;5017707;28;20075;-69
2022/10/16 02:25:46;;;;;;;2.25;2.05;;;11.60;99.90;;;;;;5023329;28;20026;-68
2022/10/16 02:28:19;;;;;;;2.75;2.33;;;11.70;99.90;;;;;;5017181;28;20393;-69
2022/10/16 02:30:52;;;;;;;5.97;2.00;;;11.70;99.90;;;;;;5021984;28;20496;-68
2022/10/16 02:33:20;;;;;;;2.88;2.55;;;11.80;99.90;;;;;;5017530;28;20100;-68
2022/10/16 02:35:48;;;;;;;2.88;2.53;;;11.80;99.90;;;;;;5022023;28;20160;-68
2022/10/16 02:38:16;;;;;;;3.45;2.38;;;11.90;99.90;;;;;;5017852;28;20030;-69
2022/10/16 02:40:42;;;;;;;5.93;2.10;;;11.90;99.90;;;;;;5015248;28;20029;-69
2022/10/16 02:43:09;;;;;;;2.55;2.13;;;12.00;99.90;;;;;;5033797;28;20029;-68
2022/10/16 02:45:34;;;;;;;5.97;2.15;;;12.00;99.90;;;;;;5019707;28;20031;-68
2022/10/16 02:48:00;;;;;;;3.47;2.38;;;12.10;99.90;;;;;;5015599;28;20444;-69
2022/10/16 02:50:26;;;;;;;3.15;2.05;;;12.10;99.90;;;;;;5020845;28;20565;-69
2022/10/16 02:52:52;;;;;;;2.53;2.17;;;12.20;99.90;;;;;;5028663;28;20100;-68
2022/10/16 02:55:17;;;;;;;2.65;1.83;;;12.20;99.90;;;;;;5021307;28;20028;-68
2022/10/16 02:57:43;;;;;;;3.38;2.10;;;12.20;99.90;;;;;;5024115;28;20056;-69
2022/10/16 03:00:14;;;;;;;3.03;2.60;;;12.30;99.90;;;;;;5024898;28;20087;-68
2022/10/16 03:02:39;;;;;;;5.35;2.03;;;12.30;99.90;;;;;;5025107;28;20108;-69
2022/10/16 03:05:06;;;;;;;10.45;2.65;;;12.30;99.90;;;;;;5025266;28;20469;-69
2022/10/16 03:07:31;;;;;;;7.95;2.50;;;12.40;99.90;;;;;;5012677;28;20049;-68
2022/10/16 03:09:59;;;;;;;4.70;2.80;;;12.40;99.90;;;;;;5016886;28;20025;-69
2022/10/16 03:12:26;;;;;;;4.00;2.05;;;12.40;99.90;;;;;;5027442;28;20021;-69
2022/10/16 03:14:51;;;;;;;6.20;2.53;;;12.40;99.90;;;;;;5022296;28;20045;-68
2022/10/16 03:17:17;;;;;;;6.40;1.90;;;12.40;99.90;;;;;;5004730;28;20576;-69
2022/10/16 03:19:43;;;;;;;2.08;1.80;;;12.40;99.90;;;;;;5019897;28;20034;-68
2022/10/16 03:22:08;;;;;;;2.38;2.15;;;12.50;99.90;;;;;;5013265;28;20022;-69
2022/10/16 03:24:34;;;;;;;4.60;2.25;;;12.40;99.90;;;;;;5025975;28;20446;-68
2022/10/16 03:27:00;;;;;;;2.92;2.30;;;12.40;99.90;;;;;;5023625;28;20484;-68
2022/10/16 03:29:25;;;;;;;4.25;2.20;;;12.30;99.90;;;;;;5023028;28;20544;-68
2022/10/16 03:31:51;;;;;;;3.38;1.95;;;12.30;99.90;;;;;;5021052;28;20061;-68
2022/10/16 03:34:17;;;;;;;2.65;1.75;;;12.30;99.90;;;;;;5029902;28;20405;-68
2022/10/16 03:36:43;;;;;;;8.48;2.40;;;12.30;99.90;;;;;;5023153;28;20038;-69
2022/10/16 03:39:08;;;;;;;6.35;2.33;;;12.20;99.90;;;;;;5020550;28;20034;-68
2022/10/16 03:41:34;;;;;;;2.90;2.10;;;12.30;99.90;;;;;;5023446;28;20164;-69
2022/10/16 03:43:59;;;;;;;2.10;1.80;;;12.20;99.90;;;;;;5017734;28;20026;-68
2022/10/16 03:46:25;;;;;;;3.13;2.20;;;12.30;99.90;;;;;;5040379;23;20042;-61
2022/10/16 03:48:50;;;;;;;2.60;2.00;;;12.30;99.90;;;;;;5019443;28;20060;-63
2022/10/16 03:51:16;;;;;;;2.05;1.65;;;12.30;99.90;;;;;;5032079;28;20084;-62
2022/10/16 03:53:41;;;;;;;3.92;1.83;;;12.30;99.90;;;;;;5033396;28;20113;-62
2022/10/16 03:56:07;;;;;;;4.55;1.73;;;12.30;99.90;;;;;;5031981;28;20033;-62
2022/10/16 03:58:33;;;;;;;3.97;1.77;;;12.30;99.90;;;;;;5007067;28;20041;-65
2022/10/16 04:00:58;;;;;;;5.95;1.60;;;12.30;99.90;;;;;;5032966;28;20029;-64
2022/10/16 04:03:24;;;;;;;1.67;1.58;;;12.30;99.90;;;;;;5030084;28;20048;-65
2022/10/16 04:05:49;;;;;;;2.78;1.20;;;12.30;99.90;;;;;;5016068;28;20025;-64
2022/10/16 04:08:16;;;;;;;2.40;1.60;;;12.20;99.90;;;;;;5034262;28;20021;-64
2022/10/16 04:10:44;;;;;;;7.72;1.45;;;12.20;99.90;;;;;;5028850;28;20064;-65
2022/10/16 04:13:10;;;;;;;4.65;1.77;;;12.20;99.90;;;;;;5036425;28;20030;-64
2022/10/16 04:15:36;;;;;;;2.65;1.80;;;12.30;99.90;;;;;;5017891;28;20029;-66
2022/10/16 04:18:02;;;;;;;2.25;1.80;;;12.30;99.90;;;;;;4997752;28;20025;-65
2022/10/16 04:20:27;;;;;;;3.33;1.65;;;12.30;99.90;;;;;;4986024;28;20029;-65
2022/10/16 04:22:53;;;;;;;6.35;1.55;;;12.40;99.90;;;;;;5011234;28;20100;-65
2022/10/16 04:25:18;;;;;;;9.95;1.88;;;12.40;99.90;;;;;;5012328;28;20049;-65
2022/10/16 04:27:44;;;;;;;3.53;1.30;;;12.40;99.90;;;;;;5011366;28;20485;-65
2022/10/16 04:30:10;;;;;;;1.83;1.25;;;12.50;99.90;;;;;;5005141;28;20029;-65
2022/10/16 04:32:35;;;;;;;2.63;1.17;;;12.50;99.90;;;;;;5017489;28;20638;-65
2022/10/16 04:35:02;;;;;;;2.20;1.13;;;12.50;99.90;;;;;;5000395;28;20034;-65
2022/10/16 04:37:28;;;;;;;1.40;1.10;;;12.50;99.90;;;;;;5009843;28;20061;-64
2022/10/16 04:39:54;;;;;;;1.85;1.40;;;12.50;99.90;;;;;;5011390;28;20061;-65
2022/10/16 04:42:20;;;;;;;4.15;1.33;;;12.50;99.90;;;;;;5009765;28;20022;-65
2022/10/16 04:44:46;;;;;;;1.75;1.30;;;12.50;99.90;;;;;;5019135;28;20032;-65
2022/10/16 04:47:12;;;;;;;1.33;1.23;;;12.50;99.90;;;;;;5004064;28;20034;-65
2022/10/16 04:49:38;;;;;;;2.92;0.93;;;12.50;99.90;;;;;;5008697;28;20038;-64
2022/10/16 04:52:04;;;;;;;1.27;1.08;;;12.50;99.90;;;;;;4992819;28;20033;-65
2022/10/16 04:54:29;;;;;;;1.35;1.15;;;12.50;99.90;;;;;;5014072;28;20025;-64
2022/10/16 04:56:55;;;;;;;1.88;1.02;;;12.50;99.90;;;;;;5012069;28;20041;-65
2022/10/16 04:59:22;;;;;;;10.10;1.73;;;12.60;99.90;;;;;;5014835;28;20457;-66
2022/10/16 05:01:47;;;;;;;1.65;1.10;;;12.60;99.90;;;;;;5012683;28;20050;-65
2022/10/16 05:04:14;;;;;;;2.38;1.40;;;12.50;99.90;;;;;;5016147;28;20476;-65
2022/10/16 05:06:40;;;;;;;1.38;1.20;;;12.50;99.90;;;;;;5010525;28;20116;-65
2022/10/16 05:09:06;;;;;;;1.15;1.02;;;12.50;99.90;;;;;;5014106;28;20033;-65
2022/10/16 05:11:32;;;;;;;1.50;1.23;;;12.50;99.90;;;;;;5009920;28;20049;-65
2022/10/16 05:13:58;;;;;;;2.85;1.35;;;12.50;99.90;;;;;;5013914;28;20026;-64
2022/10/16 05:16:24;;;;;;;1.95;1.75;;;12.40;99.90;;;;;;4989977;28;20046;-65
2022/10/16 05:18:51;;;;;;;3.95;1.55;;;12.40;99.90;;;;;;5030012;28;20037;-64
2022/10/16 05:21:17;;;;;;;3.05;1.50;;;12.40;99.90;;;;;;5029271;28;20100;-65
2022/10/16 05:23:43;;;;;;;1.75;1.38;;;12.40;99.90;;;;;;5025945;28;20106;-64
2022/10/16 05:26:08;;;;;;;8.40;1.38;;;12.40;99.90;;;;;;5029580;28;20451;-66
2022/10/16 05:28:34;;;;;;;1.70;1.50;;;12.40;99.90;;;;;;5030721;28;20026;-65
2022/10/16 05:31:07;;;;;;;1.60;1.40;;;12.40;99.90;;;;;;5030534;28;20037;-64
2022/10/16 05:33:33;;;;;;;4.65;1.65;;;12.50;99.90;;;;;;5031119;28;20520;-65
2022/10/16 05:36:07;;;;;;;3.38;1.55;;;12.50;99.90;;;;;;5028386;28;20611;-65
2022/10/16 05:38:36;;;;;;;1.42;1.33;;;12.50;99.90;;;;;;5029619;28;20091;-64
2022/10/16 05:41:03;;;;;;;3.55;1.60;;;12.50;99.90;;;;;;5027671;28;20025;-65
2022/10/16 05:43:29;;;;;;;1.42;1.25;;;12.50;99.90;;;;;;5032965;28;20100;-66
2022/10/16 05:46:00;;;;;;;3.33;1.40;;;12.40;99.90;;;;;;5028895;28;20100;-65
2022/10/16 05:48:26;;;;;;;4.03;1.25;;;12.40;99.90;;;;;;5028757;28;20025;-65
2022/10/16 05:51:04;;;;;;;1.85;1.25;;;12.40;99.90;;;;;;5034244;28;20071;-65
2022/10/16 05:53:31;;;;;;;2.95;1.70;;;12.40;99.90;;;;;;5027837;28;20370;-65
2022/10/16 05:55:58;;;;;;;8.50;1.52;;;12.40;99.90;;;;;;5033682;28;20104;-66
2022/10/16 05:58:29;;;;;;;1.40;1.25;;;12.40;99.90;;;;;;5033010;28;20025;-65
2022/10/16 06:00:57;;;;;;;2.83;1.50;;;12.40;99.90;;;;;;5043523;28;20021;-65
2022/10/16 06:03:22;;;;;;;2.55;1.83;;;12.30;99.90;;;;;;5031418;28;20025;-65
2022/10/16 06:05:48;;;;;;;2.05;1.80;;;12.30;99.90;;;;;;5029965;28;20099;-65
2022/10/16 06:08:14;;;;;;;2.72;1.73;;;12.30;99.90;;;;;;5034835;28;20022;-65
2022/10/16 06:10:39;;;;;;;3.50;1.63;;;12.30;99.90;;;;;;5029019;28;20021;-65
2022/10/16 06:13:05;;;;;;;2.33;1.73;;;12.30;99.90;;;;;;5027086;28;20168;-65
2022/10/16 06:15:30;;;;;;;5.13;1.48;;;12.30;99.90;;;;;;5030808;28;20059;-65
2022/10/16 06:17:56;;;;;;;5.43;1.50;;;12.20;99.90;;;;;;5011399;28;20121;-64
2022/10/16 06:20:21;;;;;;;2.25;1.33;;;12.20;99.90;;;;;;5028486;28;20029;-66
2022/10/16 06:22:47;;;;;;;4.30;1.90;;;12.20;99.90;;;;;;5028603;28;20049;-66
2022/10/16 06:25:13;;;;;;;2.97;1.55;;;12.20;99.90;;;;;;5028694;28;20559;-65
2022/10/16 06:27:41;;;;;;;7.30;2.10;;;12.20;99.90;;;;;;5026522;28;20018;-66
2022/10/16 06:30:07;;;;;;;4.47;1.90;;;12.20;99.90;;;;;;5024070;28;20064;-66
2022/10/16 06:32:33;;;;;;;4.05;1.88;;;12.20;99.90;;;;;;5031053;28;20102;-64
2022/10/16 06:34:59;;;;;;;2.42;1.67;;;12.30;99.90;;;;;;5030724;28;20520;-66
2022/10/16 06:37:24;;;;;;;1.55;1.33;;;12.30;99.90;;;;;;5031739;28;20033;-65
2022/10/16 06:39:52;;;;;;;3.40;1.60;;;12.30;99.90;;;;;;5028464;28;20079;-65
2022/10/16 06:42:18;;;;;;;4.10;2.60;;;12.20;99.90;;;;;;5028382;28;20021;-66
2022/10/16 06:44:43;;;;;;;2.40;1.90;;;12.30;99.90;;;;;;5030460;28;20041;-65
2022/10/16 06:47:09;;;;;;;3.85;1.52;;;12.30;99.90;;;;;;5017159;28;138040;-64
2022/10/16 06:49:35;;;;;;;2.00;1.80;;;12.40;99.90;;;;;;5035807;28;20033;-62
2022/10/16 06:52:01;;;;;;;5.35;1.88;;;12.60;99.90;;;;;;5035092;28;20061;-63
2022/10/16 06:54:27;;;;;;;9.10;1.40;;;12.70;99.90;;;;;;5028604;28;20402;-63
2022/10/16 06:56:54;;;;;;;2.72;1.80;;;12.80;99.90;;;;;;5028509;28;20025;-62
2022/10/16 06:59:22;;;;;;;8.25;1.60;;;12.90;99.90;;;;;;5029080;28;20092;-63
2022/10/16 07:01:48;;;;;;;2.40;1.40;;;13.10;99.90;;;;;;5031186;28;20034;-62
2022/10/16 07:04:14;;;;;;;3.63;1.25;;;13.30;99.90;;;;;;5033788;28;20075;-62
2022/10/16 07:06:39;;;;;;;3.35;1.23;;;13.40;99.90;;;;;;5032713;28;20078;-63
2022/10/16 07:09:10;;;;;;;1.33;1.15;;;13.60;99.90;;;;;;5030702;28;20037;-66
2022/10/16 07:11:37;;;;;;;3.58;1.48;;;13.70;99.90;;;;;;5027047;28;20037;-65
2022/10/16 07:14:03;;;;;;;2.10;1.33;;;13.80;99.90;;;;;;5028861;28;20040;-65
2022/10/16 07:16:31;;;;;;;3.45;1.50;;;14.00;99.90;;;;;;5018564;28;20030;-66
2022/10/16 07:19:02;;;;;;;3.60;1.25;;;14.10;99.90;;;;;;5020331;28;20030;-66
2022/10/16 07:21:31;;;;;;;1.92;1.75;;;14.10;99.90;;;;;;5033158;28;20474;-65
2022/10/16 07:23:59;;;;;;;1.10;1.10;;;14.20;99.90;;;;;;5034911;28;20056;-65
2022/10/16 07:26:26;;;;;;;0.90;0.90;;;14.20;99.90;;;;;;5030500;28;20022;-66
2022/10/16 07:28:52;;;;;;;3.28;1.20;;;14.30;99.90;;;;;;5027282;28;20041;-66
2022/10/16 07:31:19;;;;;;;5.57;1.13;;;14.40;99.90;;;;;;5026791;28;20028;-65
2022/10/16 07:33:47;;;;;;;1.60;1.27;;;14.50;99.90;;;;;;5028094;28;20057;-62
2022/10/16 07:36:14;;;;;;;1.20;0.88;;;14.50;99.90;;;;;;5029934;28;20030;-63
2022/10/16 07:38:40;;;;;;;1.77;1.20;;;14.60;99.90;;;;;;5014143;28;20095;-63
2022/10/16 07:41:08;;;;;;;2.08;1.63;;;14.60;99.90;;;;;;5023815;28;20030;-63
2022/10/16 07:43:34;;;;;;;3.47;1.10;;;14.60;99.90;;;;;;5019255;28;20072;-63
2022/10/16 07:46:00;;;;;;;3.75;2.05;;;14.70;99.90;;;;;;5034026;28;20057;-62
2022/10/16 07:48:32;;;;;;;2.58;1.27;;;14.60;99.90;;;;;;5027623;28;20029;-62
2022/10/16 07:51:03;;;;;;;3.33;0.90;;;14.70;99.90;;;;;;5022056;28;20029;-63
2022/10/16 07:53:28;;;;;;;3.40;0.95;;;14.90;99.90;;;;;;5024779;28;20033;-62
2022/10/16 07:55:58;;;;;;;1.92;1.10;;;14.90;99.90;;;;;;5032682;28;20029;-61
2022/10/16 07:58:24;;;;;;;1.08;0.98;;;14.90;99.90;;;;;;5031586;28;20030;-63
2022/10/16 08:00:49;;;;;;;3.65;1.10;;;14.90;99.90;;;;;;5028951;28;20478;-63
2022/10/16 08:03:15;;;;;;;1.20;0.95;;;14.90;99.90;;;;;;5031147;28;20041;-63
2022/10/16 08:05:40;;;;;;;6.40;1.08;;;14.70;99.90;;;;;;5032150;28;20465;-63
2022/10/16 08:08:06;;;;;;;1.05;0.75;;;14.60;99.90;;;;;;5034596;28;20030;-63
2022/10/16 08:10:32;;;;;;;1.30;0.90;;;14.50;99.90;;;;;;5036064;28;20694;-63
2022/10/16 08:12:58;;;;;;;1.88;1.17;;;14.40;99.90;;;;;;5031762;28;20047;-63
2022/10/16 08:15:24;;;;;;;1.52;1.30;;;14.30;99.90;;;;;;5033733;28;20056;-63
2022/10/16 08:17:57;;;;;;;2.10;1.20;;;14.30;99.90;;;;;;5014248;28;20076;-63
2022/10/16 08:20:23;;;;;;;1.88;1.17;;;14.20;99.90;;;;;;5030835;28;20508;-62
2022/10/16 08:22:48;;;;;;;4.25;1.27;;;14.10;99.90;;;;;;5024435;28;20036;-62
2022/10/16 08:25:14;;;;;;;4.57;1.85;;;14.00;99.90;;;;;;5035048;28;20132;-63
2022/10/16 08:27:40;;;;;;;0.93;0.88;;;14.10;99.90;;;;;;5031186;28;20462;-62
2022/10/16 08:30:06;;;;;;;1.52;1.25;;;14.10;99.90;;;;;;5036343;28;20038;-65
2022/10/16 08:32:32;;;;;;;3.25;1.10;;;14.10;99.90;;;;;;5031692;28;20038;-65
2022/10/16 08:34:57;;;;;;;3.03;1.52;;;14.20;99.90;;;;;;5036955;28;20025;-65
2022/10/16 08:37:23;;;;;;;1.73;1.30;;;14.30;99.90;;;;;;5033066;28;20029;-65
2022/10/16 08:39:48;;;;;;;2.85;1.13;;;14.40;99.90;;;;;;5030563;28;20044;-64
2022/10/16 08:42:14;;;;;;;2.33;1.23;;;14.50;99.90;;;;;;5031527;28;20528;-64
2022/10/16 08:44:57;;;;;;;2.75;1.15;;;14.60;99.90;;;;;;5021245;28;20021;-65
2022/10/16 08:47:29;;;;;;;2.80;1.48;;;14.70;99.90;;;;;;5026634;28;20039;-64
2022/10/16 08:50:10;;;;;;;1.63;1.23;;;14.90;99.90;;;;;;5025944;28;20404;-65
2022/10/16 08:52:40;;;;;;;2.30;1.23;;;15.10;99.90;;;;;;5031782;28;20032;-65
2022/10/16 08:55:06;;;;;;;3.53;1.23;;;15.30;99.90;;;;;;5034679;28;20074;-65
2022/10/16 08:57:32;;;;;;;2.40;1.40;;;15.40;99.90;;;;;;5031878;28;20021;-64
2022/10/16 09:00:12;;;;;;;3.10;1.23;;;15.60;99.90;;;;;;5030796;28;20128;-65
2022/10/16 09:03:06;;;;;;;1.65;1.10;;;15.60;99.90;;;;;;5022997;28;20795;-65
2022/10/16 09:05:54;;;;;;;1.27;1.00;;;15.80;99.90;;;;;;5019915;28;20044;-65
2022/10/16 09:08:29;;;;;;;2.38;0.93;;;16.60;99.90;;;;;;5031963;28;20074;-65
2022/10/16 09:11:32;;;;;;;1.17;0.90;;;17.00;99.90;;;;;;5030977;28;20407;-63
2022/10/16 09:14:00;;;;;;;1.98;0.90;;;17.70;99.90;;;;;;5015073;28;20080;-63
2022/10/16 09:16:32;;;;;;;1.33;0.70;;;17.70;99.90;;;;;;5023772;28;20017;-62
2022/10/16 09:19:28;;;;;;;0.50;0.50;;;17.80;99.90;;;;;;5014260;28;20054;-63
2022/10/16 09:21:55;;;;;;;1.50;0.80;;;17.90;99.90;;;;;;5031462;28;20067;-63
2022/10/16 09:24:23;;;;;;;1.63;0.50;;;18.00;99.90;;;;;;5029464;28;20056;-64
2022/10/16 09:26:49;;;;;;;2.13;1.20;;;18.20;99.90;;;;;;5031202;28;20017;-63
2022/10/16 09:29:21;;;;;;;3.00;0.75;;;18.50;99.90;;;;;;5030656;28;20048;-63
2022/10/16 09:31:47;;;;;;;0.98;0.70;;;18.80;99.90;;;;;;5029798;28;20116;-64
2022/10/16 09:34:32;;;;;;;0.47;0.47;;;18.80;99.90;;;;;;5030348;28;20168;-63
2022/10/16 09:37:02;;;;;;;2.25;0.50;;;18.60;99.90;;;;;;5029758;28;20037;-63
2022/10/16 09:39:28;;;;;;;2.25;0.60;;;18.50;99.90;;;;;;5027468;28;20504;-63
2022/10/16 09:41:55;;;;;;;3.20;0.65;;;18.70;99.90;;;;;;5020208;28;20028;-63
2022/10/16 09:44:31;;;;;;;0.60;0.38;;;18.90;99.90;;;;;;5029544;28;20029;-63
2022/10/16 09:47:31;;;;;;;1.85;0.70;;;18.90;99.90;;;;;;5028905;28;20067;-64
2022/10/16 09:50:05;;;;;;;1.48;0.70;;;18.40;99.90;;;;;;5030491;28;20065;-63
2022/10/16 09:52:32;;;;;;;0.30;0.30;;;18.30;99.90;;;;;;5028214;28;20022;-63
2022/10/16 09:55:00;;;;;;;0.45;0.40;;;18.10;99.90;;;;;;5027112;28;20021;-63
2022/10/16 09:57:26;;;;;;;1.58;0.55;;;18.00;99.90;;;;;;5028071;28;20032;-63
2022/10/16 09:59:54;;;;;;;1.30;0.70;;;18.10;99.90;;;;;;5020623;28;20029;-63
2022/10/16 10:02:30;;;;;;;1.38;0.47;;;18.20;99.90;;;;;;5017479;28;20022;-64
2022/10/16 10:04:57;;;;;;;0.57;0.50;;;18.30;99.90;;;;;;5025408;28;20108;-64
2022/10/16 10:07:29;;;;;;;0.60;0.60;;;18.40;99.90;;;;;;5030144;28;20060;-63
2022/10/16 10:09:57;;;;;;;1.95;0.47;;;18.30;99.90;;;;;;5042455;28;20519;-63
2022/10/16 10:12:25;;;;;;;1.98;0.85;;;18.30;99.90;;;;;;5037246;28;20039;-64
2022/10/16 10:14:53;;;;;;;0.80;0.70;;;18.20;99.90;;;;;;5037455;28;20489;-64
2022/10/16 10:17:23;;;;;;;2.83;0.47;;;18.20;99.90;;;;;;5016022;28;20131;-63
2022/10/16 10:19:51;;;;;;;0.85;0.63;;;18.20;99.90;;;;;;5029872;28;20448;-63
2022/10/16 10:22:23;;;;;;;1.00;0.68;;;18.40;99.90;;;;;;5029528;28;20080;-64
2022/10/16 10:25:20;;;;;;;0.50;0.40;;;18.40;99.90;;;;;;5034343;28;20028;-64
2022/10/16 10:28:10;;;;;;;1.88;0.80;;;18.50;99.90;;;;;;5027577;28;20037;-63
2022/10/16 10:30:59;;;;;;;1.25;0.60;;;18.70;99.90;;;;;;5023962;28;20029;-63
2022/10/16 10:33:40;;;;;;;1.52;0.57;;;18.50;99.90;;;;;;5013363;28;20116;-64
2022/10/16 10:36:40;;;;;;;3.92;0.70;;;18.50;99.90;;;;;;5029482;28;20021;-64
2022/10/16 10:39:22;;;;;;;1.20;0.60;;;18.50;99.90;;;;;;4980177;28;20050;-64
2022/10/16 10:42:19;;;;;;;4.55;0.60;;;18.60;99.90;;;;;;5003850;28;20092;-64
2022/10/16 10:45:13;;;;;;;1.40;0.60;;;18.60;99.90;;;;;;5022224;28;20036;-65
2022/10/16 10:48:02;;;;;;;1.48;1.13;;;18.60;99.90;;;;;;5051742;23;20085;-68
2022/10/16 10:50:39;;;;;;;2.33;0.60;;;18.70;99.90;;;;;;4984365;28;20039;-67
2022/10/16 10:53:24;;;;;;;1.48;0.40;;;19.00;99.90;;;;;;4995233;28;20105;-68
2022/10/16 10:56:07;;;;;;;0.52;0.50;;;19.40;99.90;;;;;;4989388;28;20018;-68
2022/10/16 10:59:16;;;;;;;0.67;0.50;;;19.80;99.90;;;;;;4988481;28;20046;-68
2022/10/16 11:01:56;;;;;;;2.42;0.40;;;19.80;99.90;;;;;;4973528;28;21033;-68
2022/10/16 11:04:21;;;;;;;2.35;0.40;;;20.00;99.90;;;;;;4987783;28;20022;-68
2022/10/16 11:07:08;;;;;;;0.98;0.40;;;19.80;99.90;;;;;;4984990;28;20064;-68
2022/10/16 11:09:36;;;;;;;1.17;0.63;;;19.90;99.90;;;;;;4999312;28;20034;-67
2022/10/16 11:12:31;;;;;;;3.90;0.45;;;20.00;99.90;;;;;;4971559;28;20081;-69
2022/10/16 11:15:26;;;;;;;3.40;0.30;;;20.20;99.90;;;;;;4985383;28;20584;-69
2022/10/16 11:18:16;;;;;;;4.40;0.50;;;20.20;99.90;;;;;;4973183;28;20062;-69
2022/10/16 11:20:53;;;;;;;1.23;0.30;;;20.20;99.90;;;;;;4969366;28;20458;-67
2022/10/16 11:23:38;;;;;;;0.70;0.40;;;20.30;99.90;;;;;;4969937;28;20624;-69
2022/10/16 11:26:10;;;;;;;1.55;0.30;;;20.20;99.90;;;;;;4977533;28;20031;-69
2022/10/16 11:28:42;;;;;;;0.90;0.40;;;20.20;99.90;;;;;;4973471;28;20018;-68
2022/10/16 11:31:21;;;;;;;5.20;0.60;;;20.30;99.90;;;;;;4977608;28;20049;-70
2022/10/16 11:33:59;;;;;;;1.65;0.43;;;20.30;99.90;;;;;;4972628;28;20034;-67
2022/10/16 11:36:46;;;;;;;2.45;0.40;;;20.30;99.90;;;;;;4972994;28;20045;-67
2022/10/16 11:39:23;;;;;;;0.90;0.40;;;20.00;99.90;;;;;;4962816;28;20019;-68
2022/10/16 11:41:52;;;;;;;1.30;0.40;;;19.80;99.90;;;;;;4966957;28;20019;-68
2022/10/16 11:44:21;;;;;;;0.73;0.38;;;19.60;99.90;;;;;;4962653;28;20457;-69
2022/10/16 11:47:11;;;;;;;0.52;0.28;;;19.50;99.90;;;;;;4965987;28;20038;-68
2022/10/16 11:49:39;;;;;;;1.23;0.50;;;19.60;99.90;;;;;;4962326;28;20058;-68
2022/10/16 11:52:13;;;;;;;1.90;0.50;;;19.50;99.90;;;;;;4981656;28;20022;-68
2022/10/16 11:54:54;;;;;;;1.50;0.45;;;19.40;99.90;;;;;;4969224;28;20043;-66
2022/10/16 11:57:44;;;;;;;0.30;0.30;;;19.30;99.90;;;;;;4969913;28;20038;-68
2022/10/16 12:00:22;;;;;;;4.97;0.50;;;19.20;99.90;;;;;;4960285;28;20130;-68
2022/10/16 12:03:06;;;;;;;4.78;0.70;;;19.20;99.90;;;;;;4966782;28;20034;-69
2022/10/16 12:05:52;;;;;;;0.95;0.40;;;19.20;99.90;;;;;;4972114;28;20026;-69
2022/10/16 12:08:18;;;;;;;0.80;0.43;;;19.00;99.90;;;;;;4982218;28;20054;-69
2022/10/16 12:10:46;;;;;;;0.57;0.40;;;19.00;99.90;;;;;;4965999;28;20623;-69
2022/10/16 12:13:33;;;;;;;2.17;0.60;;;19.20;99.90;;;;;;4969679;28;20030;-69
2022/10/16 12:16:11;;;;;;;1.42;0.57;;;19.30;99.90;;;;;;4964274;28;20541;-69
2022/10/16 12:18:37;;;;;;;1.13;0.50;;;19.50;99.90;;;;;;4954182;28;20104;-71
2022/10/16 12:21:07;;;;;;;2.17;0.68;;;19.60;99.90;;;;;;4965573;28;20031;-68
2022/10/16 12:23:38;;;;;;;4.10;0.50;;;19.70;99.90;;;;;;4968815;28;20402;-70
2022/10/16 12:26:04;;;;;;;0.40;0.40;;;19.70;99.90;;;;;;4967945;28;20050;-70
2022/10/16 12:28:32;;;;;;;0.93;0.50;;;19.80;99.90;;;;;;4983344;28;20031;-70
2022/10/16 12:31:08;;;;;;;0.93;0.50;;;19.90;99.90;;;;;;4983217;28;20085;-71
2022/10/16 12:33:35;;;;;;;1.48;0.60;;;20.00;99.90;;;;;;4980739;28;20022;-70
2022/10/16 12:36:04;;;;;;;0.40;0.30;;;20.00;99.90;;;;;;4968105;28;20022;-69
2022/10/16 12:38:33;;;;;;;0.30;0.30;;;20.20;99.90;;;;;;4973067;28;20033;-69
2022/10/16 12:41:08;;;;;;;0.50;0.40;;;20.40;99.70;;;;;;4978418;28;20699;-69
2022/10/16 12:43:46;;;;;;;0.75;0.40;;;20.50;99.90;;;;;;4985402;28;20023;-69
2022/10/16 12:46:14;;;;;;;0.30;0.20;;;20.80;99.90;;;;;;4972169;28;20022;-69
2022/10/16 12:48:43;;;;;;;1.35;0.47;;;20.70;98.90;;;;;;4969898;28;20785;-69
2022/10/16 12:51:29;;;;;;;3.60;0.55;;;20.80;99.90;;;;;;4980547;28;20098;-69
2022/10/16 12:54:02;;;;;;;3.80;0.38;;;20.60;99.40;;;;;;4972301;28;20030;-69
2022/10/16 12:56:55;;;;;;;2.13;0.47;;;20.40;99.30;;;;;;4982355;28;20022;-69
2022/10/16 12:59:48;;;;;;;1.07;0.40;;;20.40;99.60;;;;;;4977249;28;20811;-69
2022/10/16 13:02:35;;;;;;;0.30;0.30;;;20.20;99.90;;;;;;4967162;28;20027;-69
2022/10/16 13:05:00;;;;;;;2.53;0.43;;;19.90;99.90;;;;;;4959924;28;20041;-70